Time;durP1;ratioP1;P1;durP2;ratioP2;P2;SDS_P1;SDS_P2;PMS_P1;PMS_P2;Temp;Humidity;BMP_temperature;BMP_pressure;BME280_temperature;BME280_humidity;BME280_pressure;Samples;Min_cycle;Max_cycle;Signal;HPM_P1;HPM_P2
2021/10/27 00:01:14;;;;;;;0.47;0.47;;;;;;;17.06;67.28;102163.69;4998144;28;20026;-80
2021/10/27 00:03:40;;;;;;;0.22;0.22;;;;;;;17.02;67.56;102164.66;4997123;28;20034;-81
2021/10/27 00:06:06;;;;;;;0.25;0.25;;;;;;;17.00;67.57;102160.28;5001095;28;20042;-82
2021/10/27 00:08:33;;;;;;;0.47;0.35;;;;;;;17.10;67.32;102161.81;5004863;28;20057;-84
2021/10/27 00:10:59;;;;;;;0.85;0.85;;;;;;;17.07;67.23;102161.88;5008316;28;20045;-81
2021/10/27 00:13:25;;;;;;;0.10;0.10;;;;;;;17.05;67.57;102153.91;5001675;28;20441;-80
2021/10/27 00:15:51;;;;;;;1.15;1.13;;;;;;;17.06;67.35;102152.97;5003840;28;20037;-80
2021/10/27 00:18:18;;;;;;;0.25;0.25;;;;;;;17.07;67.45;102154.75;5003708;28;20064;-81
2021/10/27 00:20:44;;;;;;;0.20;0.20;;;;;;;16.90;68.12;102164.97;4997707;28;20054;-82
2021/10/27 00:23:10;;;;;;;0.63;0.63;;;;;;;16.95;67.84;102166.63;4998742;28;20376;-80
2021/10/27 00:25:36;;;;;;;0.17;0.17;;;;;;;17.04;67.51;102170.00;4998878;28;20030;-80
2021/10/27 00:28:03;;;;;;;0.47;0.47;;;;;;;17.06;67.60;102160.13;5000405;28;20037;-82
2021/10/27 00:30:37;;;;;;;0.73;0.73;;;;;;;16.98;67.99;102166.56;5005708;28;20027;-80
2021/10/27 00:33:22;;;;;;;0.10;0.10;;;;;;;17.12;67.78;102168.88;4998343;28;20084;-87
2021/10/27 00:35:58;;;;;;;0.22;0.22;;;;;;;17.11;67.65;102160.91;5003335;28;20026;-81
2021/10/27 00:38:32;;;;;;;0.10;0.10;;;;;;;17.00;68.06;102158.50;5002689;28;20377;-80
2021/10/27 00:40:58;;;;;;;0.85;0.85;;;;;;;17.06;68.11;102158.34;4998332;28;20045;-80
2021/10/27 00:43:24;;;;;;;5.38;0.93;;;;;;;17.01;68.27;102157.59;5001423;28;20242;-81
2021/10/27 00:45:50;;;;;;;0.50;0.50;;;;;;;17.11;67.81;102160.91;4998949;28;20042;-80
2021/10/27 00:48:17;;;;;;;1.65;0.35;;;;;;;16.91;68.86;102156.94;4997236;28;20040;-85
2021/10/27 00:50:43;;;;;;;0.10;0.10;;;;;;;16.82;69.11;102149.09;5002663;28;20096;-82
2021/10/27 00:53:09;;;;;;;0.20;0.20;;;;;;;16.98;68.72;102154.97;4995747;28;20489;-81
2021/10/27 00:55:36;;;;;;;0.20;0.20;;;;;;;16.80;69.29;102151.81;5002370;28;20452;-82
2021/10/27 00:58:02;;;;;;;0.68;0.68;;;;;;;16.85;69.69;102158.84;4998469;28;20034;-81
2021/10/27 01:00:29;;;;;;;0.32;0.32;;;;;;;16.77;69.45;102151.00;4994988;28;20100;-81
2021/10/27 01:02:55;;;;;;;0.10;0.10;;;;;;;16.76;69.21;102155.50;4997717;28;20037;-81
2021/10/27 01:05:21;;;;;;;0.10;0.10;;;;;;;16.82;69.21;102160.69;4996928;28;20354;-81
2021/10/27 01:07:47;;;;;;;0.00;0.00;;;;;;;16.67;69.82;102158.38;4996517;28;20506;-85
2021/10/27 01:10:14;;;;;;;0.40;0.40;;;;;;;16.66;70.14;102164.69;4998915;28;20488;-83
2021/10/27 01:12:41;;;;;;;1.77;0.57;;;;;;;16.62;70.23;102166.53;5005040;28;20030;-81
2021/10/27 01:15:08;;;;;;;0.65;0.65;;;;;;;16.61;70.67;102167.47;5004240;28;20072;-81
2021/10/27 01:17:34;;;;;;;0.28;0.28;;;;;;;16.66;70.08;102164.69;5008089;28;20065;-82
2021/10/27 01:20:02;;;;;;;0.40;0.30;;;;;;;16.69;70.02;102164.59;5008333;28;20453;-81
2021/10/27 01:22:32;;;;;;;6.75;1.08;;;;;;;16.80;69.65;102159.84;5007532;28;20500;-81
2021/10/27 01:25:00;;;;;;;0.10;0.10;;;;;;;16.68;69.99;102162.81;5007498;28;20034;-81
2021/10/27 01:27:27;;;;;;;0.10;0.10;;;;;;;16.78;69.94;102159.00;5006440;28;20042;-81
2021/10/27 01:29:55;;;;;;;0.10;0.10;;;;;;;16.69;70.05;102151.22;5007009;28;20026;-81
2021/10/27 01:32:27;;;;;;;0.43;0.43;;;;;;;16.63;70.25;102160.25;5004290;28;20030;-82
2021/10/27 01:34:54;;;;;;;0.40;0.40;;;;;;;16.66;70.06;102162.88;5007811;28;20046;-81
2021/10/27 01:37:21;;;;;;;0.47;0.47;;;;;;;16.75;70.28;102161.75;5006391;28;20026;-81
2021/10/27 01:39:48;;;;;;;0.10;0.10;;;;;;;16.62;70.80;102160.28;5008503;28;20037;-83
2021/10/27 01:42:14;;;;;;;0.10;0.10;;;;;;;16.57;70.74;102164.88;5009191;28;20492;-81
2021/10/27 01:44:41;;;;;;;0.10;0.10;;;;;;;16.46;70.95;102163.34;5006105;28;20136;-81
2021/10/27 01:49:53;;;;;;;0.50;0.50;;;;;;;16.47;71.03;102162.44;5008616;28;20050;-80
2021/10/27 01:52:19;;;;;;;1.52;0.70;;;;;;;16.55;70.67;102162.25;5004900;28;20045;-81
2021/10/27 01:54:45;;;;;;;0.15;0.15;;;;;;;16.58;70.18;102156.81;5008348;28;20034;-81
2021/10/27 01:57:13;;;;;;;0.10;0.10;;;;;;;16.64;70.11;102155.78;5005981;28;20646;-82
2021/10/27 01:59:39;;;;;;;0.10;0.10;;;;;;;16.63;70.05;102154.03;5005116;28;20026;-83
2021/10/27 02:02:06;;;;;;;0.45;0.45;;;;;;;16.50;70.24;102143.63;5008790;28;20034;-84
2021/10/27 02:04:32;;;;;;;0.15;0.15;;;;;;;16.57;69.55;102139.00;5003114;28;20030;-83
2021/10/27 02:07:00;;;;;;;0.25;0.25;;;;;;;16.55;69.66;102147.97;5005608;28;20042;-82
2021/10/27 02:09:27;;;;;;;0.25;0.25;;;;;;;16.54;69.70;102143.56;5007176;28;20037;-81
2021/10/27 02:11:53;;;;;;;0.10;0.10;;;;;;;16.58;69.68;102145.25;4998394;28;20037;-81
2021/10/27 02:14:19;;;;;;;0.93;0.93;;;;;;;16.64;69.17;102139.75;5008226;28;20049;-81
2021/10/27 02:16:45;;;;;;;2.65;1.85;;;;;;;16.58;69.11;102139.91;5008817;28;20096;-79
2021/10/27 02:19:12;;;;;;;0.10;0.10;;;;;;;16.64;69.17;102132.59;5006256;28;20042;-79
2021/10/27 02:21:38;;;;;;;0.10;0.10;;;;;;;16.71;68.91;102133.31;5008174;28;20400;-78
2021/10/27 02:24:05;;;;;;;0.10;0.10;;;;;;;16.70;68.92;102139.59;5007172;28;20070;-79
2021/10/27 02:26:31;;;;;;;0.20;0.20;;;;;;;16.55;69.16;102124.78;5010238;28;20026;-79
2021/10/27 02:28:58;;;;;;;0.10;0.10;;;;;;;16.65;68.95;102129.00;5001815;28;20081;-82
2021/10/27 02:31:24;;;;;;;0.10;0.10;;;;;;;16.62;68.95;102125.50;5001115;28;20030;-81
2021/10/27 02:33:51;;;;;;;0.10;0.10;;;;;;;16.74;68.70;102137.72;5001388;28;20077;-81
2021/10/27 02:36:27;;;;;;;0.13;0.13;;;;;;;16.67;69.21;102128.94;5001282;28;20079;-80
2021/10/27 02:38:59;;;;;;;0.10;0.10;;;;;;;16.80;68.76;102129.53;5009241;28;20038;-81
2021/10/27 02:41:29;;;;;;;0.17;0.17;;;;;;;16.77;68.40;102129.59;5004101;28;20037;-82
2021/10/27 02:43:55;;;;;;;1.00;1.00;;;;;;;16.86;68.55;102131.16;5004916;28;20038;-81
2021/10/27 02:46:21;;;;;;;0.57;0.57;;;;;;;16.80;68.00;102125.06;4998415;28;20026;-81
2021/10/27 02:48:47;;;;;;;0.20;0.20;;;;;;;16.83;68.48;102129.44;4999893;28;20476;-83
2021/10/27 02:51:13;;;;;;;0.10;0.10;;;;;;;16.75;68.44;102132.31;4999032;28;20030;-81
2021/10/27 02:53:40;;;;;;;1.75;1.45;;;;;;;16.81;67.88;102134.84;5000941;28;20117;-81
2021/10/27 02:56:06;;;;;;;1.15;1.15;;;;;;;16.85;67.84;102132.97;5001579;28;20029;-81
2021/10/27 02:58:32;;;;;;;0.10;0.10;;;;;;;16.81;67.79;102131.31;5011613;28;20473;-81
2021/10/27 03:01:00;;;;;;;0.10;0.10;;;;;;;16.85;67.79;102138.31;5004972;28;20029;-82
2021/10/27 03:03:26;;;;;;;0.30;0.30;;;;;;;16.80;67.99;102134.88;5011842;28;20029;-81
2021/10/27 03:05:52;;;;;;;0.10;0.10;;;;;;;16.77;68.15;102141.19;5002497;28;20044;-81
2021/10/27 03:08:18;;;;;;;0.20;0.20;;;;;;;16.88;67.79;102137.38;5003177;28;20034;-81
2021/10/27 03:10:45;;;;;;;0.55;0.45;;;;;;;16.82;67.63;102141.97;5004950;28;20084;-85
2021/10/27 03:13:11;;;;;;;0.10;0.10;;;;;;;16.82;67.73;102139.28;5006523;28;20484;-81
2021/10/27 03:15:37;;;;;;;0.32;0.32;;;;;;;16.79;67.72;102144.69;5000583;28;20045;-84
2021/10/27 03:18:03;;;;;;;0.80;0.73;;;;;;;16.88;67.76;102143.59;5005707;28;20120;-80
2021/10/27 03:20:29;;;;;;;0.55;0.20;;;;;;;16.76;67.61;102144.78;5005355;28;20454;-81
2021/10/27 03:22:56;;;;;;;0.75;0.73;;;;;;;16.75;67.82;102143.03;5000420;28;20109;-81
2021/10/27 03:25:22;;;;;;;0.10;0.10;;;;;;;16.74;68.11;102146.63;5000195;28;20030;-80
2021/10/27 03:27:48;;;;;;;0.10;0.10;;;;;;;16.79;67.60;102144.69;5002710;28;20050;-81
2021/10/27 03:30:15;;;;;;;0.10;0.10;;;;;;;16.81;67.65;102144.69;4999137;28;20042;-81
2021/10/27 03:32:41;;;;;;;0.20;0.20;;;;;;;16.72;68.25;102148.44;5004011;28;20069;-81
2021/10/27 03:35:07;;;;;;;0.10;0.10;;;;;;;16.56;69.04;102147.97;4996845;28;20046;-81
2021/10/27 03:37:35;;;;;;;0.90;0.82;;;;;;;16.73;68.05;102150.19;5005008;28;20091;-81
2021/10/27 03:40:02;;;;;;;0.10;0.10;;;;;;;16.62;68.33;102158.53;5001505;28;20045;-81
2021/10/27 03:42:28;;;;;;;0.10;0.10;;;;;;;16.55;68.98;102156.00;5003967;28;20034;-81
2021/10/27 03:44:54;;;;;;;0.10;0.10;;;;;;;16.63;68.30;102154.03;5007165;28;20089;-81
2021/10/27 03:47:21;;;;;;;0.10;0.10;;;;;;;16.64;68.28;102156.66;4996264;28;20045;-81
2021/10/27 03:49:48;;;;;;;0.10;0.10;;;;;;;16.60;68.99;102148.78;4998801;28;20173;-80
2021/10/27 03:52:15;;;;;;;0.10;0.10;;;;;;;16.67;68.52;102155.69;4996807;28;20034;-81
2021/10/27 03:54:41;;;;;;;1.10;1.10;;;;;;;16.59;68.37;102149.69;4997252;28;20492;-81
2021/10/27 03:57:07;;;;;;;0.10;0.10;;;;;;;16.63;68.22;102151.34;4998380;28;20041;-80
2021/10/27 03:59:34;;;;;;;1.15;1.15;;;;;;;16.55;68.35;102153.31;5001346;28;20121;-80
2021/10/27 04:02:00;;;;;;;0.10;0.10;;;;;;;16.65;68.04;102141.50;5000544;28;20038;-80
2021/10/27 04:04:26;;;;;;;0.32;0.32;;;;;;;16.58;68.41;102134.53;5000618;28;20560;-80
2021/10/27 04:06:52;;;;;;;0.60;0.60;;;;;;;16.47;68.44;102141.03;4997019;28;20390;-80
2021/10/27 04:09:18;;;;;;;0.10;0.10;;;;;;;16.56;68.05;102147.06;4995534;28;20065;-81
2021/10/27 04:11:45;;;;;;;0.10;0.10;;;;;;;16.38;68.44;102135.91;5000513;28;20495;-78
2021/10/27 04:14:11;;;;;;;0.10;0.10;;;;;;;16.65;67.64;102146.84;4998034;28;20034;-78
2021/10/27 04:16:37;;;;;;;0.10;0.10;;;;;;;16.48;67.62;102144.59;4997141;28;20046;-78
2021/10/27 04:19:03;;;;;;;0.10;0.10;;;;;;;16.53;67.82;102152.50;5002184;28;20029;-78
2021/10/27 04:21:30;;;;;;;0.10;0.10;;;;;;;16.62;67.53;102142.47;5000248;28;20485;-78
2021/10/27 04:23:56;;;;;;;0.57;0.57;;;;;;;16.47;67.68;102154.41;5001427;28;20054;-78
2021/10/27 04:26:22;;;;;;;0.15;0.15;;;;;;;16.55;67.32;102147.97;4996987;28;20500;-78
2021/10/27 04:28:49;;;;;;;0.30;0.30;;;;;;;16.63;66.85;102160.25;4996667;28;20044;-78
2021/10/27 04:31:15;;;;;;;0.15;0.15;;;;;;;16.54;67.28;102151.59;4998338;28;20038;-78
2021/10/27 04:33:42;;;;;;;0.13;0.13;;;;;;;16.67;67.07;102158.38;4995954;28;20054;-78
2021/10/27 04:36:08;;;;;;;0.10;0.10;;;;;;;16.61;66.90;102163.88;4994953;28;20034;-79
2021/10/27 04:38:34;;;;;;;0.10;0.10;;;;;;;16.61;66.76;102162.09;4998264;28;20038;-78
2021/10/27 04:41:00;;;;;;;0.00;0.00;;;;;;;16.60;66.71;102157.66;4998682;28;20065;-78
2021/10/27 04:43:26;;;;;;;0.10;0.10;;;;;;;16.67;66.51;102163.72;4999456;28;20057;-78
2021/10/27 04:45:53;;;;;;;0.08;0.08;;;;;;;16.74;66.29;102165.34;4996988;28;20026;-78
2021/10/27 04:48:19;;;;;;;0.10;0.10;;;;;;;16.73;66.53;102160.03;4995507;28;20042;-78
2021/10/27 04:50:46;;;;;;;0.10;0.10;;;;;;;16.60;66.74;102159.47;4997407;28;20062;-78
2021/10/27 04:53:15;;;;;;;0.20;0.20;;;;;;;16.68;66.59;102157.47;4999257;28;20374;-78
2021/10/27 04:55:41;;;;;;;0.30;0.30;;;;;;;16.63;66.64;102154.03;4994815;28;20035;-78
2021/10/27 04:58:08;;;;;;;0.15;0.15;;;;;;;16.65;66.33;102150.41;4995663;28;20057;-77
2021/10/27 05:00:34;;;;;;;0.10;0.10;;;;;;;16.75;66.09;102148.38;4993663;28;20038;-78
2021/10/27 05:03:00;;;;;;;0.10;0.10;;;;;;;16.75;66.00;102156.41;4997574;28;20489;-78
2021/10/27 05:05:27;;;;;;;0.10;0.10;;;;;;;16.70;66.28;102155.66;4997908;28;20049;-78
2021/10/27 05:07:53;;;;;;;0.85;0.40;;;;;;;16.67;66.32;102153.03;4995683;28;20085;-78
2021/10/27 05:10:20;;;;;;;0.20;0.20;;;;;;;16.68;66.35;102144.09;5001122;28;20041;-81
2021/10/27 05:12:46;;;;;;;0.10;0.10;;;;;;;16.63;66.80;102148.69;4996496;28;20037;-80
2021/10/27 05:15:12;;;;;;;0.10;0.10;;;;;;;16.67;65.96;102150.34;4995181;28;20037;-80
2021/10/27 05:17:38;;;;;;;0.10;0.10;;;;;;;16.67;66.51;102150.34;4993611;28;20127;-81
2021/10/27 05:20:05;;;;;;;0.38;0.38;;;;;;;16.72;66.07;102156.47;4996335;28;20557;-80
2021/10/27 05:22:31;;;;;;;0.10;0.10;;;;;;;16.80;65.92;102162.53;4998457;28;20026;-88
2021/10/27 05:24:57;;;;;;;0.20;0.20;;;;;;;16.62;66.58;102157.63;4997621;28;20119;-87
2021/10/27 05:27:24;;;;;;;0.10;0.10;;;;;;;16.63;66.41;102167.41;4996191;28;20030;-81
2021/10/27 05:29:50;;;;;;;0.52;0.52;;;;;;;16.65;66.11;102158.44;4993601;28;20025;-87
2021/10/27 05:32:17;;;;;;;0.10;0.10;;;;;;;16.60;66.44;102155.00;4999622;28;20045;-80
2021/10/27 05:34:43;;;;;;;1.10;1.05;;;;;;;16.55;66.15;102156.91;4995953;28;20022;-81
2021/10/27 05:37:09;;;;;;;0.10;0.10;;;;;;;16.60;66.25;102149.63;4998064;28;20031;-83
2021/10/27 05:39:36;;;;;;;0.15;0.15;;;;;;;16.72;66.28;102150.25;4997445;28;20033;-83
2021/10/27 05:42:04;;;;;;;0.10;0.10;;;;;;;16.75;65.69;102158.22;4999059;28;20096;-82
2021/10/27 05:44:31;;;;;;;1.15;1.05;;;;;;;16.75;66.09;102158.22;5006302;28;20021;-81
2021/10/27 05:46:58;;;;;;;0.25;0.25;;;;;;;16.71;65.83;102157.41;5002089;28;20487;-81
2021/10/27 05:55:21;;;;;;;0.10;0.10;;;;;;;16.67;66.01;102155.69;5069182;27;20418;-79
2021/10/27 05:57:39;;;;;;;0.10;0.10;;;;;;;16.73;65.90;102160.03;5057063;28;20102;-78
2021/10/27 06:00:09;;;;;;;0.17;0.17;;;;;;;16.78;65.54;102160.81;5058665;28;20037;-83
2021/10/27 06:02:35;;;;;;;0.10;0.10;;;;;;;16.85;65.50;102169.53;5055018;28;20057;-83
2021/10/27 06:05:02;;;;;;;0.22;0.22;;;;;;;16.88;65.56;102164.13;5056208;28;20704;-80
2021/10/27 06:07:30;;;;;;;0.25;0.22;;;;;;;16.76;65.69;102166.19;5055291;28;20029;-79
2021/10/27 06:09:56;;;;;;;0.10;0.10;;;;;;;16.73;65.71;102174.28;5060969;28;20036;-81
2021/10/27 06:12:22;;;;;;;0.10;0.10;;;;;;;16.59;66.07;102165.75;5063078;28;20047;-81
2021/10/27 06:14:49;;;;;;;0.10;0.10;;;;;;;16.77;65.64;102173.31;5066849;28;20119;-80
2021/10/27 06:17:15;;;;;;;0.17;0.17;;;;;;;16.65;65.91;102165.59;5064535;28;20057;-82
2021/10/27 06:19:42;;;;;;;0.10;0.10;;;;;;;16.68;65.87;102178.00;5061198;28;20542;-79
2021/10/27 06:22:09;;;;;;;0.10;0.10;;;;;;;16.78;66.00;102174.19;5062333;28;20053;-80
2021/10/27 06:24:36;;;;;;;0.40;0.40;;;;;;;16.72;65.49;102175.19;5062124;28;20037;-80
2021/10/27 06:27:04;;;;;;;0.10;0.10;;;;;;;16.71;65.91;102173.47;5064175;28;20082;-79
2021/10/27 06:29:34;;;;;;;0.10;0.10;;;;;;;16.70;65.88;102170.81;5063583;28;20036;-80
2021/10/27 06:34:52;;;;;;;0.10;0.10;;;;;;;16.76;65.91;102176.91;5060591;28;20037;-80
2021/10/27 06:48:23;;;;;;;0.50;0.50;;;;;;;16.82;65.41;102191.91;5054282;28;20052;-80
2021/10/27 06:50:49;;;;;;;0.73;0.73;;;;;;;16.78;66.08;102201.81;5063607;28;20107;-80
2021/10/27 06:53:16;;;;;;;0.05;0.05;;;;;;;16.76;66.12;102202.78;5064838;28;20040;-79
2021/10/27 06:55:42;;;;;;;0.10;0.10;;;;;;;16.83;65.67;102204.38;5064353;28;20086;-82
2021/10/27 06:58:10;;;;;;;0.10;0.10;;;;;;;16.75;65.71;102207.25;5061971;28;20569;-82
2021/10/27 07:17:10;;;;;;;2.00;0.77;;;;;;;16.64;66.03;102215.53;5036870;28;20037;-83
2021/10/27 07:19:36;;;;;;;0.13;0.13;;;;;;;16.55;66.35;102225.56;5044014;28;20027;-83
2021/10/27 07:22:02;;;;;;;0.10;0.10;;;;;;;16.77;65.68;102221.50;5044557;28;20025;-84
2021/10/27 07:24:29;;;;;;;3.10;1.42;;;;;;;16.72;65.75;102230.53;5042743;28;20029;-84
2021/10/27 07:26:58;;;;;;;0.20;0.20;;;;;;;16.73;65.66;102238.53;5045424;28;20104;-83
2021/10/27 07:29:24;;;;;;;0.00;0.00;;;;;;;16.80;65.46;102239.28;5042061;28;20398;-85
2021/10/27 07:31:51;;;;;;;1.40;1.00;;;;;;;16.85;65.39;102241.81;5041767;28;20033;-84
2021/10/27 07:34:18;;;;;;;0.10;0.10;;;;;;;16.78;65.97;102241.09;5046447;28;20432;-84
2021/10/27 07:42:18;;;;;;;0.20;0.20;;;;;;;16.94;65.41;102250.53;5044846;28;20041;-82
2021/10/27 07:44:44;;;;;;;0.20;0.20;;;;;;;16.95;65.24;102233.56;5045626;28;20112;-82
2021/10/27 07:47:11;;;;;;;0.10;0.10;;;;;;;16.99;65.30;102242.41;5040423;28;20434;-84
2021/10/27 07:49:37;;;;;;;0.10;0.10;;;;;;;16.97;65.44;102238.88;5042166;28;20025;-84
2021/10/27 07:52:05;;;;;;;0.00;0.00;;;;;;;16.92;65.16;102249.72;5042335;28;20025;-84
2021/10/27 07:54:31;;;;;;;0.20;0.20;;;;;;;17.06;65.01;102252.06;5044053;28;20037;-84
2021/10/27 07:56:57;;;;;;;1.52;1.45;;;;;;;17.02;64.92;102250.34;5042654;28;20038;-85
2021/10/27 07:59:24;;;;;;;0.10;0.10;;;;;;;17.12;64.90;102246.56;5043989;28;20401;-85
2021/10/27 08:01:50;;;;;;;0.10;0.10;;;;;;;17.09;65.10;102253.78;5043439;28;20032;-83
2021/10/27 08:04:16;;;;;;;0.20;0.20;;;;;;;17.15;64.61;102253.63;5040945;28;20052;-82
2021/10/27 08:06:45;;;;;;;0.43;0.43;;;;;;;17.11;64.85;102250.13;5040259;28;20423;-81
2021/10/27 08:09:12;;;;;;;0.10;0.10;;;;;;;17.19;64.50;102252.63;5041813;28;20104;-82
2021/10/27 08:11:39;;;;;;;0.17;0.17;;;;;;;17.19;64.58;102257.09;5043158;28;20400;-82
2021/10/27 08:14:05;;;;;;;0.63;0.63;;;;;;;17.13;64.83;102259.03;5042415;28;20026;-83
2021/10/27 08:16:31;;;;;;;0.10;0.10;;;;;;;17.19;64.88;102254.44;5033548;28;20041;-82
2021/10/27 08:18:59;;;;;;;0.10;0.10;;;;;;;17.18;64.86;102255.34;5029757;28;20113;-83
2021/10/27 08:21:25;;;;;;;0.20;0.20;;;;;;;17.34;64.35;102255.84;5031586;28;20080;-84
2021/10/27 08:23:52;;;;;;;0.10;0.10;;;;;;;17.36;63.88;102254.88;5026642;28;20560;-81
2021/10/27 08:26:22;;;;;;;0.10;0.10;;;;;;;17.32;64.41;102258.56;5027747;28;20167;-83
2021/10/27 08:28:54;;;;;;;0.05;0.05;;;;;;;17.46;64.28;102255.53;5024695;28;20051;-83
2021/10/27 08:34:08;;;;;;;0.15;0.15;;;;;;;17.57;63.56;102250.75;5101326;27;20414;-82
2021/10/27 08:36:35;;;;;;;0.00;0.00;;;;;;;17.48;63.76;102255.47;5097308;28;20331;-82
2021/10/27 08:39:04;;;;;;;0.10;0.10;;;;;;;17.61;63.21;102259.59;5092601;28;20056;-80
2021/10/27 08:41:32;;;;;;;0.70;0.70;;;;;;;17.63;63.37;102263.09;5092669;28;20024;-84
2021/10/27 08:44:02;;;;;;;0.10;0.10;;;;;;;17.53;63.05;102261.59;5094054;28;20436;-81
2021/10/27 08:46:30;;;;;;;0.10;0.10;;;;;;;17.54;63.01;102253.50;5093587;28;20025;-81
2021/10/27 08:48:57;;;;;;;0.50;0.50;;;;;;;17.73;62.81;102267.31;5090877;28;20028;-81
2021/10/27 08:51:26;;;;;;;2.25;1.98;;;;;;;17.56;63.20;102265.06;5088723;28;20114;-81
2021/10/27 08:53:53;;;;;;;0.55;0.55;;;;;;;17.60;63.21;102265.88;5091794;28;20697;-81
2021/10/27 08:56:20;;;;;;;0.10;0.10;;;;;;;17.70;62.87;102262.00;5089672;28;20028;-82
2021/10/27 08:58:50;;;;;;;0.28;0.28;;;;;;;17.59;62.91;102261.41;5092443;28;20020;-84
2021/10/27 09:01:29;;;;;;;0.68;0.68;;;;;;;17.77;62.77;102258.25;5088677;28;20474;-83
2021/10/27 09:09:54;;;;;;;0.10;0.10;;;;;;;17.83;62.40;102267.94;5069683;27;20401;-86
2021/10/27 09:16:15;;;;;;;0.30;0.30;;;;;;;17.86;62.33;102288.41;5081816;27;20417;-84
2021/10/27 09:35:36;;;;;;;0.30;0.30;;;;;;;18.13;61.00;102269.78;5055770;28;20048;-80
2021/10/27 09:38:24;;;;;;;3.00;0.68;;;;;;;18.25;60.59;102264.06;5036563;28;20052;-81
2021/10/27 09:41:04;;;;;;;0.20;0.20;;;;;;;18.13;61.03;102267.13;5033008;28;20030;-81
2021/10/27 09:43:47;;;;;;;0.10;0.10;;;;;;;18.25;60.16;102277.50;5036292;28;20721;-85
2021/10/27 09:46:37;;;;;;;0.50;0.50;;;;;;;18.07;60.38;102270.88;5038194;28;20057;-83
2021/10/27 10:06:15;;;;;;;0.55;0.55;;;;;;;18.20;60.89;102287.47;5032379;28;20034;-82
2021/10/27 10:08:44;;;;;;;0.35;0.35;;;;;;;18.11;60.51;102283.25;5030206;28;20044;-82
2021/10/27 10:11:11;;;;;;;0.40;0.40;;;;;;;18.28;60.61;102285.47;5038323;28;20108;-82
2021/10/27 10:13:38;;;;;;;0.60;0.60;;;;;;;18.35;60.59;102289.69;5038176;28;20036;-82
2021/10/27 10:16:06;;;;;;;0.10;0.10;;;;;;;18.33;60.06;102299.63;5038538;28;20384;-83
2021/10/27 10:18:34;;;;;;;0.10;0.10;;;;;;;18.48;60.13;102289.34;5035666;28;20022;-81
2021/10/27 10:21:01;;;;;;;1.27;1.05;;;;;;;18.40;60.08;102294.94;5030943;28;20029;-82
2021/10/27 10:23:27;;;;;;;0.10;0.10;;;;;;;18.54;59.76;102299.88;5042571;28;20013;-82
2021/10/27 10:25:56;;;;;;;0.10;0.10;;;;;;;18.58;59.91;102293.50;5032678;28;20079;-82
2021/10/27 10:28:26;;;;;;;0.10;0.10;;;;;;;18.38;59.65;102300.34;5029040;28;20036;-81
2021/10/27 10:30:58;;;;;;;0.10;0.10;;;;;;;18.51;59.73;102302.69;5031115;28;20518;-81
2021/10/27 10:33:43;;;;;;;0.10;0.10;;;;;;;18.52;59.35;102301.75;5035046;28;20504;-82
2021/10/27 10:36:29;;;;;;;0.13;0.13;;;;;;;18.53;59.27;102295.44;5031353;28;20082;-82
2021/10/27 10:44:44;;;;;;;2.40;2.22;;;;;;;18.60;58.81;102302.38;5030480;28;20408;-80
2021/10/27 10:56:18;;;;;;;0.10;0.10;;;;;;;18.78;58.26;102306.31;5098679;28;20487;-83
2021/10/27 11:27:37;;;;;;;0.43;0.43;;;;;;;18.46;60.22;102304.63;5084384;28;21136;-81
2021/10/27 11:39:08;;;;;;;0.20;0.20;;;;;;;18.56;59.61;102271.19;5075453;28;20044;-81
2021/10/27 11:41:33;;;;;;;0.10;0.10;;;;;;;18.49;59.20;102275.88;5088176;28;20123;-83
2021/10/27 11:44:20;;;;;;;0.10;0.10;;;;;;;18.50;59.32;102277.63;5088963;28;20031;-83
2021/10/27 11:46:56;;;;;;;0.28;0.28;;;;;;;18.56;59.38;102271.19;5088456;28;20036;-81
2021/10/27 11:49:35;;;;;;;0.10;0.10;;;;;;;18.72;58.94;102272.47;5089347;28;20078;-80
2021/10/27 11:52:04;;;;;;;0.30;0.30;;;;;;;18.81;58.56;102265.06;5080043;28;20032;-81
2021/10/27 11:54:31;;;;;;;0.52;0.50;;;;;;;18.86;58.21;102263.09;5084659;28;20040;-80
2021/10/27 11:56:59;;;;;;;0.55;0.55;;;;;;;18.89;57.94;102260.31;5089172;28;20024;-80
2021/10/27 11:59:38;;;;;;;0.88;0.88;;;;;;;18.96;57.67;102255.66;5089386;28;20016;-80
2021/10/27 12:02:04;;;;;;;0.10;0.10;;;;;;;18.83;57.67;102252.44;5089384;28;20031;-80
2021/10/27 12:04:34;;;;;;;0.10;0.10;;;;;;;18.91;57.15;102253.13;5089474;28;20453;-80
2021/10/27 12:07:21;;;;;;;0.77;0.77;;;;;;;18.95;57.26;102249.41;5089005;28;20020;-80
2021/10/27 12:10:03;;;;;;;0.30;0.30;;;;;;;19.08;57.95;102244.53;5089412;28;20032;-80
2021/10/27 12:13:04;;;;;;;0.10;0.10;;;;;;;19.01;57.13;102248.34;5089078;28;20705;-81
2021/10/27 12:20:57;;;;;;;1.08;0.52;;;;;;;18.98;56.33;102243.94;5076816;27;20881;-80
2021/10/27 12:23:26;;;;;;;0.10;0.10;;;;;;;19.02;56.63;102239.34;5067016;28;20494;-81
2021/10/27 12:26:04;;;;;;;0.10;0.10;;;;;;;19.01;56.40;102233.09;5065212;28;20025;-80
2021/10/27 12:28:33;;;;;;;0.65;0.65;;;;;;;19.00;55.93;102231.31;5067039;28;20110;-80
2021/10/27 12:31:20;;;;;;;0.10;0.10;;;;;;;19.15;55.97;102234.44;5061621;28;20375;-80
2021/10/27 12:33:48;;;;;;;0.20;0.20;;;;;;;19.15;56.32;102223.69;5064779;28;20029;-80
2021/10/27 12:36:24;;;;;;;0.22;0.22;;;;;;;18.96;56.12;102232.34;5067088;28;20414;-79
2021/10/27 12:41:57;;;;;;;0.85;0.68;;;;;;;19.26;55.90;102224.19;5071578;27;20416;-80
2021/10/27 12:44:25;;;;;;;0.35;0.35;;;;;;;19.21;55.70;102213.59;5067168;28;20075;-80
2021/10/27 12:47:16;;;;;;;0.10;0.10;;;;;;;19.45;55.50;102194.88;5046630;28;20025;-80
2021/10/27 12:49:46;;;;;;;0.30;0.30;;;;;;;19.24;54.73;102215.31;5044746;28;20092;-79
2021/10/27 12:52:31;;;;;;;0.20;0.20;;;;;;;19.40;53.87;102208.47;5044719;28;20116;-80
2021/10/27 12:58:10;;;;;;;0.52;0.52;;;;;;;19.39;54.77;102201.34;5071430;28;20417;-80
2021/10/27 13:06:57;;;;;;;0.10;0.10;;;;;;;19.50;54.31;102186.63;5034303;28;21034;-80
2021/10/27 13:23:54;;;;;;;0.47;0.47;;;;;;;19.56;53.51;102189.09;5070099;28;20469;-80
2021/10/27 13:29:33;;;;;;;0.25;0.25;;;;;;;19.63;53.45;102184.38;5046642;28;20500;-81
2021/10/27 13:31:40;;;;;;;0.10;0.10;;;;;;;19.66;53.58;102192.31;5047490;28;20037;-81
2021/10/27 13:34:07;;;;;;;0.30;0.30;;;;;;;19.73;53.78;102194.72;5045769;28;20044;-80
2021/10/27 13:36:33;;;;;;;0.05;0.05;;;;;;;19.77;54.32;102194.63;5039945;28;20029;-81
2021/10/27 13:39:02;;;;;;;0.75;0.25;;;;;;;19.67;53.73;102192.25;5043894;28;20051;-81
2021/10/27 13:41:28;;;;;;;0.10;0.10;;;;;;;19.70;53.51;102193.97;5043378;28;20029;-81
2021/10/27 13:44:01;;;;;;;0.10;0.10;;;;;;;19.54;53.41;102181.09;5039623;28;20534;-81
2021/10/27 13:49:27;;;;;;;0.75;0.75;;;;;;;19.32;53.54;102207.00;5069826;28;20405;-82
2021/10/27 14:05:59;;;;;;;0.10;0.10;;;;;;;19.24;54.45;102180.41;5046629;28;20033;-81
2021/10/27 14:06:21;;;;;;;0.13;0.13;;;;;;;19.27;55.21;102185.66;5048986;28;20041;-81
2021/10/27 14:14:11;;;;;;;0.90;0.50;;;;;;;19.48;54.58;102180.44;5067183;27;20797;-80
2021/10/27 14:19:33;;;;;;;0.22;0.22;;;;;;;19.40;54.82;102184.28;5046337;28;20032;-80
2021/10/27 14:39:12;;;;;;;1.27;1.17;;;;;;;18.36;55.60;102176.09;5046318;28;20037;-80
2021/10/27 14:58:54;;;;;;;0.22;0.22;;;;;;;17.89;56.57;102164.97;5045658;28;20033;-80
2021/10/27 15:27:35;;;;;;;0.15;0.15;;;;;;;17.32;57.31;102167.47;5093959;27;20386;-81
2021/10/27 15:42:19;;;;;;;0.20;0.20;;;;;;;16.97;57.98;102153.22;5044607;28;20045;-80
2021/10/27 15:44:59;;;;;;;0.50;0.50;;;;;;;17.19;57.63;102152.66;5046921;28;20111;-80
2021/10/27 15:53:00;;;;;;;0.30;0.30;;;;;;;17.07;57.97;102153.84;5048430;28;20476;-80
2021/10/27 15:55:27;;;;;;;1.17;0.32;;;;;;;16.90;58.08;102143.56;5048521;28;20507;-81
2021/10/27 15:57:53;;;;;;;0.20;0.20;;;;;;;16.83;58.27;102142.81;5048507;28;20017;-83
2021/10/27 16:00:22;;;;;;;0.75;0.75;;;;;;;16.89;58.02;102147.16;5043558;28;20030;-82
2021/10/27 16:02:48;;;;;;;0.20;0.20;;;;;;;16.84;58.68;102151.75;5048440;28;20471;-82
2021/10/27 16:05:14;;;;;;;14.85;1.30;;;;;;;16.75;58.79;102153.72;5048314;28;20026;-82
2021/10/27 16:07:42;;;;;;;0.28;0.28;;;;;;;16.64;58.75;102161.16;5047922;28;20487;-82
2021/10/27 16:10:15;;;;;;;0.25;0.25;;;;;;;16.60;59.03;102165.69;5047466;28;20025;-82